Time;durP1;ratioP1;P1;durP2;ratioP2;P2;SDS_P1;SDS_P2;PMS_P1;PMS_P2;Temp;Humidity;BMP_temperature;BMP_pressure;BME280_temperature;BME280_humidity;BME280_pressure;Samples;Min_cycle;Max_cycle;Signal;HPM_P1;HPM_P2
2022/06/23 00:01:12;;;;;;;18.33;6.43;;;14.80;99.90;;;;;;4952310;29;20027;-55
2022/06/23 00:03:39;;;;;;;19.10;5.70;;;14.80;99.90;;;;;;4952051;28;20047;-55
2022/06/23 00:06:08;;;;;;;16.58;5.88;;;14.70;99.90;;;;;;4952213;29;20035;-55
2022/06/23 00:08:45;;;;;;;11.60;6.32;;;14.70;99.90;;;;;;4952001;29;20035;-55
2022/06/23 00:11:27;;;;;;;21.38;6.82;;;14.30;99.90;;;;;;4952274;28;20070;-56
2022/06/23 00:14:14;;;;;;;11.80;6.00;;;14.50;99.90;;;;;;4951928;29;20035;-55
2022/06/23 00:16:39;;;;;;;13.25;6.38;;;14.40;99.90;;;;;;4951834;29;20049;-55
2022/06/23 00:19:07;;;;;;;15.23;5.97;;;14.30;99.90;;;;;;4951889;29;20471;-55
2022/06/23 00:21:34;;;;;;;12.88;6.25;;;14.30;99.90;;;;;;4935098;28;20039;-55
2022/06/23 00:24:03;;;;;;;11.35;6.05;;;14.10;99.90;;;;;;4951935;29;20024;-55
2022/06/23 00:26:36;;;;;;;12.20;6.63;;;14.00;99.90;;;;;;4951658;29;20575;-57
2022/06/23 00:29:03;;;;;;;14.77;7.05;;;14.00;99.90;;;;;;4951641;29;20130;-55
2022/06/23 00:31:32;;;;;;;15.98;6.00;;;13.90;99.90;;;;;;4951753;29;20028;-55
2022/06/23 00:34:01;;;;;;;17.02;6.65;;;13.90;99.90;;;;;;4951790;29;20034;-55
2022/06/23 00:36:41;;;;;;;13.32;5.35;;;13.90;99.90;;;;;;4951467;29;20464;-56
2022/06/23 00:39:30;;;;;;;19.77;6.18;;;13.80;99.90;;;;;;4951821;28;20070;-56
2022/06/23 00:41:56;;;;;;;11.18;5.40;;;13.80;99.90;;;;;;4934283;28;20069;-55
2022/06/23 00:44:45;;;;;;;12.52;5.72;;;13.80;99.90;;;;;;4950713;29;20431;-55
2022/06/23 00:47:18;;;;;;;12.02;4.97;;;13.70;99.90;;;;;;4951479;29;20041;-55
2022/06/23 00:50:15;;;;;;;17.58;5.20;;;13.80;99.90;;;;;;4951349;29;20051;-55
2022/06/23 00:53:22;;;;;;;15.63;5.22;;;13.70;99.90;;;;;;4951455;29;20047;-55
2022/06/23 00:56:20;;;;;;;13.77;5.43;;;13.70;99.90;;;;;;4963575;28;20062;-55
2022/06/23 00:59:05;;;;;;;12.63;5.20;;;13.60;99.90;;;;;;4951225;29;20034;-55
2022/06/23 01:01:39;;;;;;;17.55;5.57;;;13.50;99.90;;;;;;4951133;29;20146;-55
2022/06/23 01:04:25;;;;;;;11.82;5.15;;;13.60;99.90;;;;;;4951280;28;20050;-55
2022/06/23 01:07:27;;;;;;;24.58;6.55;;;13.70;99.90;;;;;;4950573;29;20059;-56
2022/06/23 01:10:14;;;;;;;13.85;4.88;;;13.70;99.90;;;;;;4950936;29;20043;-56
2022/06/23 01:12:46;;;;;;;14.73;5.95;;;13.60;99.90;;;;;;4951238;29;20431;-55
2022/06/23 01:15:21;;;;;;;15.65;5.60;;;13.70;99.90;;;;;;4951107;29;20027;-55
2022/06/23 01:17:53;;;;;;;14.00;5.03;;;13.60;99.90;;;;;;4933792;28;20034;-54
2022/06/23 01:20:34;;;;;;;15.02;5.70;;;13.70;99.90;;;;;;4951044;29;20544;-55
2022/06/23 01:23:14;;;;;;;12.85;5.00;;;13.60;99.90;;;;;;4951014;29;20043;-56
2022/06/23 01:26:19;;;;;;;12.65;4.43;;;13.40;99.90;;;;;;4951200;29;20023;-55
2022/06/23 01:28:45;;;;;;;18.40;5.40;;;13.20;99.90;;;;;;4950864;29;20050;-55
2022/06/23 01:31:17;;;;;;;18.05;4.85;;;13.10;99.90;;;;;;4950912;29;20031;-55
2022/06/23 01:33:59;;;;;;;16.88;5.75;;;13.30;99.90;;;;;;4950697;29;20102;-55
2022/06/23 01:36:29;;;;;;;16.48;7.47;;;13.20;99.90;;;;;;4950640;29;20037;-55
2022/06/23 01:39:01;;;;;;;9.73;5.28;;;13.20;99.90;;;;;;4950673;29;20035;-56
2022/06/23 01:41:41;;;;;;;15.63;6.57;;;13.30;99.90;;;;;;4950842;29;20023;-55
2022/06/23 01:44:43;;;;;;;15.73;5.32;;;13.40;99.90;;;;;;4950694;29;20024;-55
2022/06/23 01:47:32;;;;;;;12.30;5.55;;;13.30;99.90;;;;;;4950488;29;20019;-54
2022/06/23 01:50:25;;;;;;;12.93;5.55;;;13.30;99.90;;;;;;4950564;29;20039;-55
2022/06/23 01:53:09;;;;;;;12.85;4.80;;;13.30;99.90;;;;;;4938704;28;20430;-55
2022/06/23 01:56:03;;;;;;;13.77;5.63;;;13.30;99.90;;;;;;4950175;29;20093;-55
2022/06/23 01:58:47;;;;;;;12.52;5.28;;;13.00;99.90;;;;;;4950451;29;20439;-56
2022/06/23 02:01:20;;;;;;;16.90;5.82;;;12.90;99.90;;;;;;4950551;29;20035;-55
2022/06/23 02:03:51;;;;;;;18.08;6.40;;;12.90;99.90;;;;;;4950500;28;20136;-55
2022/06/23 02:06:26;;;;;;;16.73;7.05;;;12.90;99.90;;;;;;4950291;29;20031;-56
2022/06/23 02:09:19;;;;;;;18.23;8.10;;;12.90;99.90;;;;;;4950245;29;20128;-56
2022/06/23 02:11:51;;;;;;;17.52;7.05;;;12.80;99.90;;;;;;4950241;29;20094;-57
2022/06/23 02:14:29;;;;;;;13.18;7.00;;;12.70;99.90;;;;;;4950378;29;20037;-55
2022/06/23 02:17:21;;;;;;;13.75;7.07;;;12.60;99.90;;;;;;4932746;29;20432;-55
2022/06/23 02:19:52;;;;;;;10.82;6.00;;;12.60;99.90;;;;;;4950338;29;20031;-57
2022/06/23 02:22:34;;;;;;;13.02;6.20;;;12.40;99.90;;;;;;4950219;29;20031;-56
2022/06/23 02:25:15;;;;;;;11.45;6.82;;;12.40;99.90;;;;;;4950207;29;20039;-56
2022/06/23 02:27:49;;;;;;;15.43;6.57;;;12.40;99.90;;;;;;4950067;29;20089;-55
2022/06/23 02:30:20;;;;;;;14.50;7.38;;;12.30;99.90;;;;;;4949919;29;20139;-54
2022/06/23 02:33:00;;;;;;;12.50;6.80;;;12.30;99.90;;;;;;4950022;29;20039;-55
2022/06/23 02:35:33;;;;;;;13.73;6.75;;;12.30;99.90;;;;;;4949996;29;20475;-56
2022/06/23 02:38:30;;;;;;;13.73;6.38;;;12.30;99.90;;;;;;4950075;29;20093;-56
2022/06/23 02:41:01;;;;;;;15.13;7.28;;;12.30;99.90;;;;;;4950064;29;20061;-56
2022/06/23 02:43:52;;;;;;;9.95;6.07;;;12.30;99.90;;;;;;4949811;29;20031;-55
2022/06/23 02:46:51;;;;;;;12.50;5.65;;;12.40;99.90;;;;;;4949823;29;20041;-56
2022/06/23 02:49:23;;;;;;;10.73;5.38;;;12.40;99.90;;;;;;4949765;29;20114;-56
2022/06/23 02:52:00;;;;;;;13.35;5.43;;;12.40;99.90;;;;;;4949762;29;20562;-56
2022/06/23 02:55:01;;;;;;;11.98;5.28;;;12.40;99.90;;;;;;4949750;29;20061;-57
2022/06/23 02:57:39;;;;;;;15.82;5.65;;;12.40;99.90;;;;;;4949927;29;20069;-56
2022/06/23 03:00:22;;;;;;;9.13;5.35;;;12.50;99.90;;;;;;4949993;29;20024;-57
2022/06/23 03:03:21;;;;;;;9.93;5.22;;;12.50;99.90;;;;;;4949495;29;20463;-55
2022/06/23 03:05:50;;;;;;;13.48;5.63;;;12.50;99.90;;;;;;4949532;29;20029;-56
2022/06/23 03:08:21;;;;;;;11.30;5.88;;;12.50;99.90;;;;;;4950476;28;20077;-56
2022/06/23 03:10:58;;;;;;;13.27;5.95;;;12.60;99.90;;;;;;4953046;29;20093;-56
2022/06/23 03:13:55;;;;;;;13.95;5.63;;;12.60;99.90;;;;;;4953036;29;20027;-54
2022/06/23 03:16:36;;;;;;;12.75;5.75;;;12.50;99.90;;;;;;4952932;28;20039;-56
2022/06/23 03:19:09;;;;;;;13.50;5.43;;;12.50;99.90;;;;;;4952886;29;20558;-57
2022/06/23 03:22:15;;;;;;;11.98;5.68;;;12.50;99.90;;;;;;4953291;29;20050;-56
2022/06/23 03:25:20;;;;;;;9.35;5.57;;;12.50;99.90;;;;;;4980917;28;20039;-55
2022/06/23 03:28:26;;;;;;;12.60;5.95;;;12.50;99.90;;;;;;4953006;29;20093;-55
2022/06/23 03:31:17;;;;;;;15.32;5.80;;;12.50;99.90;;;;;;4953163;29;20039;-56
2022/06/23 03:34:17;;;;;;;14.63;5.60;;;12.40;99.90;;;;;;4952633;29;20055;-56
2022/06/23 03:36:52;;;;;;;12.38;5.68;;;12.50;99.90;;;;;;4971901;28;20035;-56
2022/06/23 03:42:27;;;;;;;16.13;6.00;;;12.40;99.90;;;;;;4952907;29;20074;-56
2022/06/23 03:45:16;;;;;;;12.82;5.72;;;12.60;99.90;;;;;;4952547;29;20023;-54
2022/06/23 03:47:57;;;;;;;11.07;5.78;;;12.50;99.90;;;;;;4952595;29;20023;-55
2022/06/23 03:50:29;;;;;;;12.70;5.95;;;12.50;99.90;;;;;;4952459;29;20039;-55
2022/06/23 03:52:59;;;;;;;16.88;6.20;;;12.60;99.90;;;;;;4952564;29;20374;-55
2022/06/23 03:55:50;;;;;;;20.20;6.45;;;12.60;99.90;;;;;;4952287;29;20027;-55
2022/06/23 03:58:22;;;;;;;11.98;5.82;;;12.60;99.90;;;;;;4935147;29;20027;-55
2022/06/23 04:01:04;;;;;;;12.60;5.80;;;12.60;99.90;;;;;;4952365;29;20111;-57
2022/06/23 04:03:51;;;;;;;14.98;5.63;;;12.60;99.90;;;;;;4952185;28;20379;-55
2022/06/23 04:06:31;;;;;;;14.30;6.78;;;12.60;99.90;;;;;;4952197;29;20074;-57
2022/06/23 04:09:32;;;;;;;11.23;6.30;;;12.60;99.90;;;;;;4952252;29;20044;-55
2022/06/23 04:12:07;;;;;;;11.57;6.88;;;12.70;99.90;;;;;;4952239;28;20024;-55
2022/06/23 04:15:13;;;;;;;12.82;6.20;;;13.00;99.90;;;;;;4952492;29;20077;-55
2022/06/23 04:17:43;;;;;;;16.00;6.05;;;13.00;99.90;;;;;;4959609;28;20348;-56
2022/06/23 04:20:15;;;;;;;13.60;7.22;;;13.10;99.90;;;;;;4951926;29;20019;-56
2022/06/23 04:22:48;;;;;;;13.27;6.65;;;13.10;99.90;;;;;;4952129;29;20478;-56
2022/06/23 04:25:20;;;;;;;14.32;6.35;;;13.10;99.90;;;;;;4951966;29;20471;-56
2022/06/23 04:27:55;;;;;;;14.75;6.47;;;13.20;99.90;;;;;;4952096;29;20169;-55
2022/06/23 04:30:28;;;;;;;15.10;6.47;;;13.40;99.90;;;;;;4951899;29;20065;-55
2022/06/23 04:32:56;;;;;;;18.48;6.45;;;13.50;99.90;;;;;;4951882;29;20027;-57
2022/06/23 04:35:37;;;;;;;14.10;6.72;;;13.60;99.90;;;;;;4951827;29;20081;-55
2022/06/23 04:38:21;;;;;;;16.55;7.25;;;13.80;99.90;;;;;;4951765;29;20031;-55
2022/06/23 04:41:12;;;;;;;21.25;8.15;;;14.00;99.90;;;;;;4951780;29;20035;-56
2022/06/23 04:43:45;;;;;;;18.65;7.50;;;14.00;99.90;;;;;;4952035;29;20027;-55
2022/06/23 04:46:14;;;;;;;15.88;8.63;;;14.10;99.90;;;;;;4951856;29;20038;-55
2022/06/23 04:48:39;;;;;;;20.52;9.38;;;14.30;99.90;;;;;;4951684;29;20109;-55
2022/06/23 04:51:31;;;;;;;18.67;9.20;;;14.30;99.90;;;;;;4951629;29;20514;-57
2022/06/23 04:54:09;;;;;;;25.02;9.18;;;14.50;99.90;;;;;;4944653;29;20039;-55
2022/06/23 04:56:44;;;;;;;21.52;9.65;;;14.60;99.90;;;;;;4948734;28;20033;-55
2022/06/23 04:59:30;;;;;;;26.08;11.23;;;14.70;99.90;;;;;;4950638;29;20032;-54
2022/06/23 05:02:00;;;;;;;29.80;10.73;;;14.80;99.90;;;;;;4948317;28;20039;-53
2022/06/23 05:04:37;;;;;;;22.13;10.30;;;15.00;99.90;;;;;;4951093;29;20089;-54
2022/06/23 05:07:04;;;;;;;26.52;11.38;;;15.10;99.90;;;;;;4939846;28;20019;-55
2022/06/23 05:09:41;;;;;;;23.52;9.35;;;15.30;99.90;;;;;;4940282;29;20032;-55
2022/06/23 05:12:27;;;;;;;20.45;9.23;;;15.40;99.90;;;;;;4951265;29;20030;-55
2022/06/23 05:15:16;;;;;;;18.95;8.98;;;15.50;99.90;;;;;;4951214;29;20085;-55
2022/06/23 05:17:55;;;;;;;25.30;9.63;;;15.60;99.90;;;;;;4950601;29;20035;-54
2022/06/23 05:20:40;;;;;;;23.75;8.60;;;15.80;99.90;;;;;;4950788;28;20070;-57
2022/06/23 05:23:17;;;;;;;21.38;9.30;;;15.90;99.90;;;;;;4932040;29;20106;-55
2022/06/23 05:25:46;;;;;;;19.90;8.73;;;16.10;99.90;;;;;;4932139;28;20039;-56
2022/06/23 05:28:25;;;;;;;23.27;9.30;;;16.10;99.90;;;;;;4945374;29;20110;-55
2022/06/23 05:30:55;;;;;;;22.67;8.20;;;16.20;99.90;;;;;;4945251;28;20039;-55
2022/06/23 05:33:26;;;;;;;17.45;8.15;;;16.30;99.90;;;;;;4950818;29;20154;-55
2022/06/23 05:35:59;;;;;;;17.50;8.52;;;16.40;99.90;;;;;;4951080;28;20035;-56
2022/06/23 05:38:52;;;;;;;23.90;8.68;;;16.60;99.90;;;;;;4950339;29;20031;-56
2022/06/23 05:41:26;;;;;;;34.33;8.98;;;16.70;99.90;;;;;;4950755;29;20360;-56
2022/06/23 05:43:54;;;;;;;17.45;8.00;;;16.90;99.90;;;;;;4945106;29;20112;-56
2022/06/23 05:46:23;;;;;;;19.77;7.55;;;16.90;99.90;;;;;;4950837;29;20034;-57
2022/06/23 05:48:57;;;;;;;23.05;8.20;;;17.10;99.90;;;;;;4942407;28;20431;-57
2022/06/23 05:51:52;;;;;;;19.38;7.55;;;17.20;99.90;;;;;;4950372;29;20019;-56
2022/06/23 05:54:44;;;;;;;18.10;7.78;;;17.40;99.90;;;;;;4938903;29;20044;-55
2022/06/23 05:57:57;;;;;;;22.52;7.32;;;17.50;99.90;;;;;;4948044;29;20073;-56
2022/06/23 06:01:02;;;;;;;15.50;7.28;;;17.70;99.90;;;;;;4944729;29;20078;-55
2022/06/23 06:03:37;;;;;;;14.18;5.88;;;17.70;99.90;;;;;;4917960;29;20135;-56
2022/06/23 06:06:03;;;;;;;14.13;7.15;;;17.90;99.90;;;;;;4943587;29;20034;-56
2022/06/23 06:08:34;;;;;;;17.33;5.65;;;18.00;99.90;;;;;;4939666;28;20483;-55
2022/06/23 06:11:03;;;;;;;12.90;5.38;;;18.00;99.90;;;;;;4940417;28;20538;-56
2022/06/23 06:13:33;;;;;;;11.70;5.60;;;18.10;99.90;;;;;;4939790;28;20032;-55
2022/06/23 06:16:04;;;;;;;10.65;4.85;;;18.10;99.90;;;;;;4921260;28;20046;-56
2022/06/23 06:18:38;;;;;;;9.45;4.35;;;18.20;99.90;;;;;;4939660;28;20031;-55
2022/06/23 06:21:08;;;;;;;9.88;4.07;;;18.40;99.90;;;;;;4946732;29;20030;-55
2022/06/23 06:23:48;;;;;;;12.15;4.38;;;18.40;99.90;;;;;;4949081;29;20028;-56
2022/06/23 06:26:17;;;;;;;11.13;3.88;;;18.50;99.90;;;;;;4948119;29;20019;-55
2022/06/23 06:28:42;;;;;;;9.95;3.88;;;18.60;99.90;;;;;;4949794;28;20483;-55
2022/06/23 06:31:17;;;;;;;14.20;5.10;;;18.80;99.90;;;;;;4939927;28;20023;-55
2022/06/23 06:33:49;;;;;;;15.00;4.88;;;18.70;99.90;;;;;;4942075;29;20027;-55
2022/06/23 06:36:37;;;;;;;18.25;5.15;;;18.80;99.90;;;;;;4949832;29;20024;-56
2022/06/23 06:39:08;;;;;;;10.00;4.90;;;18.90;99.90;;;;;;4948928;29;20035;-57
2022/06/23 06:41:34;;;;;;;11.98;3.80;;;19.30;99.90;;;;;;4945792;28;20379;-58
2022/06/23 06:44:02;;;;;;;9.52;4.38;;;19.30;99.90;;;;;;4947294;28;20031;-57
2022/06/23 06:46:28;;;;;;;13.02;4.05;;;19.60;99.90;;;;;;4948620;29;20098;-57
2022/06/23 06:48:54;;;;;;;13.85;4.57;;;19.60;99.90;;;;;;4948519;29;20043;-57
2022/06/23 06:51:23;;;;;;;13.55;3.97;;;19.60;99.90;;;;;;4948698;29;20024;-57
2022/06/23 06:54:15;;;;;;;11.82;4.20;;;19.70;99.90;;;;;;4948474;29;20479;-57
2022/06/23 06:56:49;;;;;;;24.25;5.30;;;19.80;99.90;;;;;;4937449;29;20031;-55
2022/06/23 06:59:18;;;;;;;10.40;3.17;;;20.00;99.90;;;;;;4945863;29;20081;-56
2022/06/23 07:01:50;;;;;;;7.25;3.22;;;19.90;99.90;;;;;;4946174;29;20031;-57
2022/06/23 07:04:30;;;;;;;10.65;4.65;;;20.00;99.90;;;;;;4946793;29;20035;-56
2022/06/23 07:07:08;;;;;;;10.05;3.45;;;20.10;99.90;;;;;;4949379;29;20034;-56
2022/06/23 07:10:00;;;;;;;9.18;3.25;;;20.20;99.90;;;;;;4949498;29;20036;-56
2022/06/23 07:12:36;;;;;;;8.63;3.30;;;20.40;99.90;;;;;;4948699;29;20059;-55
2022/06/23 07:15:29;;;;;;;7.32;3.22;;;20.70;99.90;;;;;;4949337;29;20123;-56
2022/06/23 07:18:16;;;;;;;5.72;2.60;;;20.60;99.90;;;;;;4949843;29;20031;-57
2022/06/23 07:21:00;;;;;;;4.82;2.47;;;20.50;96.00;;;;;;4949429;28;20061;-57
2022/06/23 07:23:50;;;;;;;8.65;3.13;;;20.50;96.50;;;;;;4981614;28;20017;-55
2022/06/23 07:26:27;;;;;;;7.20;2.55;;;20.60;94.90;;;;;;4984495;28;20038;-56
2022/06/23 07:29:00;;;;;;;8.38;2.55;;;20.70;95.90;;;;;;4973801;28;20134;-56
2022/06/23 07:31:48;;;;;;;5.28;2.92;;;20.70;94.40;;;;;;4932181;29;20054;-55
2022/06/23 07:34:17;;;;;;;5.13;2.67;;;20.70;93.60;;;;;;4962902;28;20059;-55
2022/06/23 07:36:46;;;;;;;8.05;2.58;;;20.80;94.00;;;;;;4945904;29;20070;-57
2022/06/23 07:39:20;;;;;;;8.95;3.25;;;20.80;94.80;;;;;;4948528;29;20074;-56
2022/06/23 07:42:36;;;;;;;6.35;2.78;;;21.00;94.20;;;;;;4949245;29;20042;-56
2022/06/23 07:45:09;;;;;;;6.05;2.50;;;21.30;92.50;;;;;;4949141;29;20483;-55
2022/06/23 07:47:35;;;;;;;5.80;2.10;;;21.60;93.80;;;;;;4949064;29;20089;-56
2022/06/23 07:50:01;;;;;;;8.18;2.80;;;21.60;91.30;;;;;;4949017;29;20043;-56
2022/06/23 07:52:27;;;;;;;5.60;2.60;;;21.60;87.90;;;;;;4947764;29;20098;-56
2022/06/23 07:54:54;;;;;;;7.70;2.15;;;21.50;84.30;;;;;;4948956;28;20351;-56
2022/06/23 07:57:20;;;;;;;3.92;1.75;;;21.50;88.40;;;;;;4950678;29;20035;-56
2022/06/23 07:59:58;;;;;;;5.55;2.17;;;21.60;89.00;;;;;;4950883;29;20566;-56
2022/06/23 08:03:14;;;;;;;9.18;2.58;;;21.60;90.00;;;;;;4950905;28;20047;-56
2022/06/23 08:06:06;;;;;;;6.70;2.92;;;21.50;90.60;;;;;;5009636;28;20061;-55
2022/06/23 08:08:35;;;;;;;7.00;2.60;;;21.60;91.60;;;;;;4935575;28;20043;-56
2022/06/23 08:13:55;;;;;;;7.65;2.53;;;21.80;90.40;;;;;;4952352;29;20034;-56
2022/06/23 08:19:16;;;;;;;8.65;2.90;;;22.10;92.40;;;;;;4952430;29;20085;-56
2022/06/23 08:21:47;;;;;;;5.07;2.28;;;22.40;88.60;;;;;;4952140;28;20020;-55
2022/06/23 08:24:23;;;;;;;8.10;2.70;;;22.30;86.00;;;;;;4951628;29;20102;-55
2022/06/23 08:27:06;;;;;;;101.18;9.32;;;22.40;85.30;;;;;;4951933;29;20106;-56
2022/06/23 08:29:42;;;;;;;12.80;3.20;;;22.40;85.30;;;;;;4934580;29;20467;-55
2022/06/23 08:32:09;;;;;;;31.20;4.28;;;22.40;86.60;;;;;;4951960;29;20444;-55
2022/06/23 08:34:38;;;;;;;6.45;2.90;;;22.40;85.20;;;;;;4951824;29;20031;-55
2022/06/23 08:37:22;;;;;;;8.77;3.00;;;22.40;86.80;;;;;;4951904;29;20027;-55
2022/06/23 08:39:55;;;;;;;6.70;2.58;;;22.40;84.30;;;;;;4951810;29;20055;-55
2022/06/23 08:42:34;;;;;;;14.70;2.85;;;22.30;84.80;;;;;;4951744;29;20030;-58
2022/06/23 08:45:05;;;;;;;10.70;3.28;;;22.30;83.70;;;;;;4951613;29;20062;-57
2022/06/23 08:47:52;;;;;;;8.48;3.20;;;22.30;84.40;;;;;;4950777;29;20727;-57
2022/06/23 08:50:21;;;;;;;11.48;3.08;;;22.30;82.80;;;;;;4951211;29;20035;-53
2022/06/23 08:52:54;;;;;;;20.77;10.07;;;22.40;86.60;;;;;;4951625;29;20027;-63
2022/06/23 08:55:29;;;;;;;8.48;4.00;;;22.30;80.20;;;;;;4950288;28;20110;-62
2022/06/23 08:58:11;;;;;;;11.05;3.00;;;22.40;79.70;;;;;;4951511;29;20165;-62
2022/06/23 09:00:36;;;;;;;10.82;3.13;;;22.40;79.20;;;;;;4951651;29;20023;-62
2022/06/23 09:03:19;;;;;;;10.27;3.15;;;22.60;78.70;;;;;;4951266;29;20056;-61
2022/06/23 09:06:25;;;;;;;12.63;3.47;;;22.50;77.00;;;;;;4950170;28;20034;-61
2022/06/23 09:09:09;;;;;;;9.85;3.53;;;22.40;80.60;;;;;;4948176;29;20057;-59
2022/06/23 09:11:54;;;;;;;11.95;3.55;;;22.70;80.10;;;;;;4948481;29;20027;-58
2022/06/23 09:14:43;;;;;;;139.10;109.57;;;22.90;77.70;;;;;;4949431;29;20050;-60
2022/06/23 09:17:12;;;;;;;9.93;3.70;;;23.10;76.10;;;;;;4950841;29;20435;-60
2022/06/23 09:19:46;;;;;;;8.98;2.90;;;23.10;74.40;;;;;;4950570;29;20032;-60
2022/06/23 09:22:39;;;;;;;8.38;3.03;;;23.20;73.70;;;;;;4949714;29;20068;-59
2022/06/23 09:25:20;;;;;;;9.05;2.55;;;23.40;78.60;;;;;;4949495;29;20106;-60
2022/06/23 09:27:57;;;;;;;8.27;2.75;;;23.80;78.10;;;;;;4949137;29;20141;-59
2022/06/23 09:30:45;;;;;;;7.75;2.35;;;24.30;77.30;;;;;;4949549;29;20089;-61
2022/06/23 09:33:38;;;;;;;9.93;2.63;;;24.80;74.30;;;;;;4949679;29;20031;-60
2022/06/23 09:36:23;;;;;;;7.68;2.45;;;24.80;65.10;;;;;;4959123;28;20018;-60
2022/06/23 09:39:14;;;;;;;6.60;2.50;;;24.30;64.80;;;;;;4940825;29;20123;-59
2022/06/23 09:42:10;;;;;;;8.98;2.80;;;24.20;66.30;;;;;;4948428;28;20038;-59
2022/06/23 09:45:07;;;;;;;9.05;1.95;;;24.50;72.50;;;;;;4941786;28;20043;-60
2022/06/23 09:47:45;;;;;;;5.53;2.10;;;24.70;69.70;;;;;;4947178;29;20042;-61
2022/06/23 09:50:29;;;;;;;;;;;25.00;69.30;;;;;;4949998;29;20473;-60
2022/06/23 09:53:13;;;;;;;7.78;2.00;;;25.20;65.70;;;;;;4947226;29;19911;-59
2022/06/23 09:55:54;;;;;;;8.32;2.50;;;25.10;64.80;;;;;;4947728;28;20429;-59
2022/06/23 09:58:45;;;;;;;5.22;1.73;;;25.10;63.80;;;;;;4947840;28;20470;-61
2022/06/23 10:01:37;;;;;;;6.78;2.25;;;25.60;64.20;;;;;;4949270;29;20086;-58
2022/06/23 10:04:11;;;;;;;4.97;2.33;;;25.80;62.80;;;;;;4940260;29;20036;-61
2022/06/23 10:07:03;;;;;;;5.20;1.90;;;25.90;61.50;;;;;;4947921;28;20065;-59
2022/06/23 10:09:39;;;;;;;6.35;2.05;;;26.00;58.10;;;;;;4948318;28;20043;-59
2022/06/23 10:12:25;;;;;;;6.78;2.38;;;26.10;63.90;;;;;;4949541;29;20097;-61
2022/06/23 10:15:06;;;;;;;9.60;2.60;;;26.10;59.10;;;;;;4947262;29;20035;-60
2022/06/23 10:17:39;;;;;;;4.65;2.20;;;26.20;61.90;;;;;;4947711;29;20134;-60
2022/06/23 10:20:26;;;;;;;9.75;2.45;;;26.40;63.70;;;;;;4947025;28;20050;-58
2022/06/23 10:23:03;;;;;;;6.65;2.25;;;26.20;59.90;;;;;;4947618;29;20035;-60
2022/06/23 10:25:50;;;;;;;5.22;2.42;;;26.10;59.30;;;;;;4947276;29;20050;-60
2022/06/23 10:28:29;;;;;;;7.68;2.88;;;26.10;60.10;;;;;;4948188;29;20031;-60
2022/06/23 10:31:00;;;;;;;8.25;3.00;;;26.00;59.70;;;;;;4940249;29;20040;-60
2022/06/23 10:33:28;;;;;;;6.93;2.80;;;26.00;63.20;;;;;;4921047;29;20447;-59
2022/06/23 10:36:09;;;;;;;8.77;2.25;;;26.20;62.40;;;;;;4921923;29;20027;-59
2022/06/23 10:38:57;;;;;;;7.20;2.88;;;26.20;61.20;;;;;;4947594;28;20039;-59
2022/06/23 10:41:31;;;;;;;99.07;16.60;;;26.10;62.00;;;;;;4948314;28;20074;-58
2022/06/23 10:44:01;;;;;;;8.18;2.30;;;26.10;61.50;;;;;;4948711;29;20038;-60
2022/06/23 10:46:51;;;;;;;21.30;4.75;;;26.10;62.60;;;;;;4949173;29;20161;-59
2022/06/23 10:49:45;;;;;;;12.38;3.10;;;26.10;60.30;;;;;;4947252;29;20038;-60
2022/06/23 10:52:22;;;;;;;32.65;6.60;;;25.90;63.60;;;;;;4939544;29;20105;-60
2022/06/23 10:54:54;;;;;;;10.45;2.03;;;26.00;64.80;;;;;;4946520;29;20340;-59
2022/06/23 10:57:40;;;;;;;8.57;2.30;;;25.90;62.80;;;;;;4948531;29;20081;-58
2022/06/23 11:00:15;;;;;;;23.80;3.35;;;25.90;62.50;;;;;;4953269;28;20414;-58
2022/06/23 11:03:09;;;;;;;8.50;2.70;;;25.80;63.40;;;;;;4948332;29;20043;-59
2022/06/23 11:05:44;;;;;;;5.68;2.40;;;25.70;63.50;;;;;;4947441;29;20023;-59
2022/06/23 11:08:20;;;;;;;44.90;5.43;;;26.00;69.50;;;;;;4946675;28;20027;-60
2022/06/23 11:10:49;;;;;;;8.60;2.28;;;26.20;64.60;;;;;;4946149;28;20122;-60
2022/06/23 11:13:35;;;;;;;6.25;1.50;;;26.50;64.90;;;;;;4948170;29;20027;-60
2022/06/23 11:16:15;;;;;;;5.57;1.95;;;26.90;64.80;;;;;;4948340;29;20035;-60
2022/06/23 11:19:15;;;;;;;11.25;3.22;;;27.00;58.40;;;;;;4949021;29;20027;-59
2022/06/23 11:21:57;;;;;;;10.15;2.63;;;26.90;59.10;;;;;;4949535;29;20039;-60
2022/06/23 11:24:53;;;;;;;9.65;1.98;;;27.40;59.60;;;;;;4949569;29;20042;-56
2022/06/23 11:27:45;;;;;;;5.82;2.60;;;27.70;60.40;;;;;;4949397;29;20024;-55
2022/06/23 11:30:26;;;;;;;5.55;1.80;;;27.60;57.00;;;;;;4951470;28;20272;-58
2022/06/23 11:33:43;;;;;;;6.60;2.05;;;27.30;56.70;;;;;;4952863;29;20077;-54
2022/06/23 11:36:26;;;;;;;3.78;2.33;;;27.00;55.40;;;;;;4939737;29;20487;-56
2022/06/23 11:38:57;;;;;;;8.18;2.40;;;26.70;58.10;;;;;;4950061;28;20024;-57
2022/06/23 11:41:58;;;;;;;5.93;2.50;;;26.70;58.20;;;;;;4952562;29;20043;-55
2022/06/23 11:44:56;;;;;;;7.93;1.95;;;26.80;61.20;;;;;;4952518;29;20031;-56
2022/06/23 11:47:49;;;;;;;5.78;1.42;;;27.10;59.60;;;;;;4952332;29;20035;-54
2022/06/23 11:50:39;;;;;;;7.93;1.98;;;27.70;60.70;;;;;;4951108;29;20442;-55
2022/06/23 11:53:39;;;;;;;4.38;1.90;;;27.90;56.40;;;;;;4951873;29;20515;-55
2022/06/23 11:56:42;;;;;;;9.88;2.05;;;27.90;58.50;;;;;;4933268;29;20554;-55
2022/06/23 11:59:50;;;;;;;5.28;1.70;;;27.80;57.80;;;;;;4933136;28;20031;-56
2022/06/23 12:02:16;;;;;;;6.65;2.00;;;28.20;56.90;;;;;;4933050;28;20043;-56
2022/06/23 12:04:50;;;;;;;6.13;2.38;;;28.40;55.80;;;;;;4933492;28;20114;-56
2022/06/23 12:07:53;;;;;;;11.68;8.32;;;28.80;56.80;;;;;;4933053;29;20555;-55
2022/06/23 12:10:22;;;;;;;8.93;4.82;;;29.00;55.00;;;;;;4932946;29;20039;-55
2022/06/23 12:12:51;;;;;;;5.72;2.63;;;29.10;52.40;;;;;;4933282;28;20111;-55
2022/06/23 12:15:20;;;;;;;6.07;1.75;;;29.00;50.30;;;;;;4944350;29;20036;-54
2022/06/23 12:18:11;;;;;;;3.65;1.50;;;28.40;51.30;;;;;;4933009;29;20368;-56
2022/06/23 12:20:44;;;;;;;5.10;1.80;;;28.20;50.80;;;;;;4932810;28;20043;-55
2022/06/23 12:23:31;;;;;;;3.25;1.60;;;28.00;54.50;;;;;;4932861;28;20059;-56
2022/06/23 12:26:27;;;;;;;5.38;1.88;;;28.20;55.10;;;;;;4932855;29;20027;-55
2022/06/23 12:29:12;;;;;;;4.65;1.85;;;28.60;54.70;;;;;;4926412;29;20035;-55
2022/06/23 12:31:44;;;;;;;3.28;1.63;;;29.10;55.60;;;;;;4951959;29;20077;-55
2022/06/23 12:34:27;;;;;;;5.65;1.77;;;29.00;56.10;;;;;;4951994;28;20032;-56
2022/06/23 12:37:30;;;;;;;5.57;1.88;;;29.10;53.70;;;;;;4951652;29;20521;-55
2022/06/23 12:40:09;;;;;;;49.42;44.05;;;29.00;53.80;;;;;;4948197;28;20121;-54
2022/06/23 12:42:50;;;;;;;7.32;2.35;;;29.30;53.80;;;;;;4934582;28;20131;-54
2022/06/23 12:45:43;;;;;;;4.72;2.10;;;29.40;52.70;;;;;;4947296;29;20032;-55
2022/06/23 12:48:35;;;;;;;5.28;2.03;;;29.60;52.70;;;;;;4950821;29;20069;-55
2022/06/23 12:51:11;;;;;;;4.82;1.90;;;29.70;52.40;;;;;;4944044;29;20047;-58
2022/06/23 12:53:52;;;;;;;3.83;2.37;;;29.80;51.10;;;;;;4951398;29;20114;-56
2022/06/23 12:56:27;;;;;;;15.20;2.22;;;29.30;50.60;;;;;;4951487;29;20027;-55
2022/06/23 12:59:07;;;;;;;2.50;1.92;;;28.70;50.00;;;;;;4950856;29;20451;-55
2022/06/23 13:01:42;;;;;;;3.70;1.95;;;28.50;50.60;;;;;;4945913;28;20031;-55
2022/06/23 13:04:28;;;;;;;9.07;1.90;;;28.80;52.60;;;;;;4951614;28;20036;-53
2022/06/23 13:07:09;;;;;;;5.70;2.15;;;29.10;52.60;;;;;;4951361;29;20065;-57
2022/06/23 13:09:39;;;;;;;2.95;1.60;;;29.50;53.00;;;;;;4951175;28;20084;-57
2022/06/23 13:12:35;;;;;;;5.93;2.33;;;29.80;53.10;;;;;;4950721;29;20706;-54
2022/06/23 13:15:13;;;;;;;5.72;2.63;;;29.50;54.30;;;;;;4950698;28;20027;-55
2022/06/23 13:18:03;;;;;;;3.58;1.63;;;29.50;50.60;;;;;;4951217;29;20035;-55
2022/06/23 13:20:42;;;;;;;2.78;1.75;;;29.90;52.10;;;;;;4951468;28;20047;-55
2022/06/23 13:23:35;;;;;;;3.92;2.00;;;30.00;51.40;;;;;;4951017;28;20035;-56
2022/06/23 13:26:13;;;;;;;3.80;1.92;;;29.90;52.10;;;;;;4950920;28;20027;-55
2022/06/23 13:28:42;;;;;;;16.83;12.68;;;29.90;52.70;;;;;;4934323;29;20047;-56
2022/06/23 13:31:20;;;;;;;7.68;2.67;;;30.20;52.40;;;;;;4949676;28;20457;-54
2022/06/23 13:34:00;;;;;;;3.38;1.95;;;30.30;50.10;;;;;;4947497;29;20495;-54
2022/06/23 13:36:45;;;;;;;4.45;2.00;;;30.00;47.60;;;;;;4947763;29;20084;-55
2022/06/23 13:39:41;;;;;;;5.90;2.30;;;29.30;48.80;;;;;;4948382;29;20027;-55
2022/06/23 13:42:14;;;;;;;6.82;1.83;;;29.50;51.60;;;;;;4939090;28;20057;-54
2022/06/23 13:45:07;;;;;;;6.25;1.70;;;29.60;52.20;;;;;;4937510;29;20527;-56
2022/06/23 13:48:11;;;;;;;4.22;1.65;;;30.00;51.20;;;;;;4947546;29;20356;-54
2022/06/23 13:50:44;;;;;;;6.03;1.85;;;30.60;52.50;;;;;;4902502;28;20247;-54
2022/06/23 13:54:00;;;;;;;7.82;2.17;;;30.70;50.40;;;;;;4934552;28;20023;-54
2022/06/23 13:56:40;;;;;;;6.30;1.90;;;31.10;50.00;;;;;;4925959;28;20055;-54
2022/06/23 13:59:15;;;;;;;5.53;1.92;;;31.10;48.10;;;;;;4924535;29;20027;-54